sensor_id;sensor_type;location;lat;lon;timestamp;P1;durP1;ratioP1;P2;durP2;ratioP2
44214;SDS011;29884;47.450;19.124;2023-04-01T00:00:22;2.55;;;0.65;;
44214;SDS011;29884;47.450;19.124;2023-04-01T00:02:48;1.60;;;0.80;;
44214;SDS011;29884;47.450;19.124;2023-04-01T00:05:14;1.48;;;0.70;;
44214;SDS011;29884;47.450;19.124;2023-04-01T00:07:41;1.45;;;0.90;;
44214;SDS011;29884;47.450;19.124;2023-04-01T00:10:08;3.85;;;0.90;;
44214;SDS011;29884;47.450;19.124;2023-04-01T00:12:36;2.95;;;1.00;;
44214;SDS011;29884;47.450;19.124;2023-04-01T00:15:02;1.95;;;1.00;;
44214;SDS011;29884;47.450;19.124;2023-04-01T00:17:29;1.33;;;0.82;;
44214;SDS011;29884;47.450;19.124;2023-04-01T00:19:55;1.70;;;1.00;;
44214;SDS011;29884;47.450;19.124;2023-04-01T00:22:22;2.05;;;1.00;;
44214;SDS011;29884;47.450;19.124;2023-04-01T00:24:48;3.00;;;1.13;;
44214;SDS011;29884;47.450;19.124;2023-04-01T00:27:14;2.17;;;1.13;;
44214;SDS011;29884;47.450;19.124;2023-04-01T00:29:44;2.42;;;1.00;;
44214;SDS011;29884;47.450;19.124;2023-04-01T00:32:11;2.65;;;1.00;;
44214;SDS011;29884;47.450;19.124;2023-04-01T00:34:37;2.33;;;1.10;;
44214;SDS011;29884;47.450;19.124;2023-04-01T00:37:04;3.40;;;1.10;;
44214;SDS011;29884;47.450;19.124;2023-04-01T00:39:31;1.98;;;1.05;;
44214;SDS011;29884;47.450;19.124;2023-04-01T00:41:58;1.63;;;1.00;;
44214;SDS011;29884;47.450;19.124;2023-04-01T00:44:28;4.47;;;1.10;;
44214;SDS011;29884;47.450;19.124;2023-04-01T00:46:56;2.53;;;1.33;;
44214;SDS011;29884;47.450;19.124;2023-04-01T00:49:23;1.65;;;1.00;;
44214;SDS011;29884;47.450;19.124;2023-04-01T00:51:54;3.38;;;1.00;;
44214;SDS011;29884;47.450;19.124;2023-04-01T00:54:22;1.70;;;1.10;;
44214;SDS011;29884;47.450;19.124;2023-04-01T00:56:54;1.67;;;1.15;;
44214;SDS011;29884;47.450;19.124;2023-04-01T00:59:26;2.45;;;1.20;;
44214;SDS011;29884;47.450;19.124;2023-04-01T01:01:55;1.30;;;1.00;;
44214;SDS011;29884;47.450;19.124;2023-04-01T01:04:32;3.00;;;1.38;;
44214;SDS011;29884;47.450;19.124;2023-04-01T01:10:10;2.60;;;1.40;;
44214;SDS011;29884;47.450;19.124;2023-04-01T01:12:48;2.05;;;1.27;;
44214;SDS011;29884;47.450;19.124;2023-04-01T01:37:17;2.40;;;1.40;;
44214;SDS011;29884;47.450;19.124;2023-04-01T01:39:47;2.67;;;1.20;;
44214;SDS011;29884;47.450;19.124;2023-04-01T01:42:16;2.08;;;1.38;;
44214;SDS011;29884;47.450;19.124;2023-04-01T01:44:44;2.30;;;1.50;;
44214;SDS011;29884;47.450;19.124;2023-04-01T01:47:13;3.65;;;1.55;;
44214;SDS011;29884;47.450;19.124;2023-04-01T01:49:40;2.05;;;1.50;;
44214;SDS011;29884;47.450;19.124;2023-04-01T01:52:08;2.97;;;1.98;;
44214;SDS011;29884;47.450;19.124;2023-04-01T01:54:35;2.72;;;1.55;;
44214;SDS011;29884;47.450;19.124;2023-04-01T01:57:10;3.53;;;1.67;;
44214;SDS011;29884;47.450;19.124;2023-04-01T01:59:37;4.90;;;1.80;;
44214;SDS011;29884;47.450;19.124;2023-04-01T02:02:05;6.15;;;1.92;;
44214;SDS011;29884;47.450;19.124;2023-04-01T02:04:37;3.35;;;1.65;;
44214;SDS011;29884;47.450;19.124;2023-04-01T02:07:09;3.20;;;1.80;;
44214;SDS011;29884;47.450;19.124;2023-04-01T02:09:39;3.20;;;2.05;;
44214;SDS011;29884;47.450;19.124;2023-04-01T02:12:08;4.78;;;2.20;;
44214;SDS011;29884;47.450;19.124;2023-04-01T02:17:17;4.30;;;2.80;;
44214;SDS011;29884;47.450;19.124;2023-04-01T02:22:21;2.33;;;1.63;;
44214;SDS011;29884;47.450;19.124;2023-04-01T02:24:50;3.42;;;1.95;;
44214;SDS011;29884;47.450;19.124;2023-04-01T02:27:19;3.70;;;1.90;;
44214;SDS011;29884;47.450;19.124;2023-04-01T02:29:45;4.13;;;1.70;;
44214;SDS011;29884;47.450;19.124;2023-04-01T02:32:12;2.58;;;1.88;;
44214;SDS011;29884;47.450;19.124;2023-04-01T02:34:39;3.17;;;1.90;;
44214;SDS011;29884;47.450;19.124;2023-04-01T02:37:05;2.65;;;1.30;;
44214;SDS011;29884;47.450;19.124;2023-04-01T02:39:32;3.13;;;1.38;;
44214;SDS011;29884;47.450;19.124;2023-04-01T02:41:57;2.08;;;1.10;;
44214;SDS011;29884;47.450;19.124;2023-04-01T02:44:23;3.28;;;1.23;;
44214;SDS011;29884;47.450;19.124;2023-04-01T02:46:49;2.60;;;1.00;;
44214;SDS011;29884;47.450;19.124;2023-04-01T02:49:15;1.90;;;1.17;;
44214;SDS011;29884;47.450;19.124;2023-04-01T02:51:40;1.88;;;0.90;;
44214;SDS011;29884;47.450;19.124;2023-04-01T02:54:06;2.45;;;1.00;;
44214;SDS011;29884;47.450;19.124;2023-04-01T02:56:32;2.20;;;0.90;;
44214;SDS011;29884;47.450;19.124;2023-04-01T02:58:57;2.47;;;0.73;;
44214;SDS011;29884;47.450;19.124;2023-04-01T03:01:23;1.33;;;0.80;;
44214;SDS011;29884;47.450;19.124;2023-04-01T03:03:49;1.95;;;0.70;;
44214;SDS011;29884;47.450;19.124;2023-04-01T03:06:15;1.00;;;0.70;;
44214;SDS011;29884;47.450;19.124;2023-04-01T03:08:42;2.85;;;0.80;;
44214;SDS011;29884;47.450;19.124;2023-04-01T03:11:09;1.52;;;0.70;;
44214;SDS011;29884;47.450;19.124;2023-04-01T03:13:35;1.98;;;0.68;;
44214;SDS011;29884;47.450;19.124;2023-04-01T03:16:01;1.65;;;0.60;;
44214;SDS011;29884;47.450;19.124;2023-04-01T03:18:28;2.22;;;0.60;;
44214;SDS011;29884;47.450;19.124;2023-04-01T03:20:54;1.23;;;0.60;;
44214;SDS011;29884;47.450;19.124;2023-04-01T03:23:20;1.45;;;0.50;;
44214;SDS011;29884;47.450;19.124;2023-04-01T03:25:46;1.10;;;0.47;;
44214;SDS011;29884;47.450;19.124;2023-04-01T03:28:13;2.30;;;0.63;;
44214;SDS011;29884;47.450;19.124;2023-04-01T03:30:39;1.27;;;0.50;;
44214;SDS011;29884;47.450;19.124;2023-04-01T03:33:05;1.52;;;0.43;;
44214;SDS011;29884;47.450;19.124;2023-04-01T03:35:31;1.77;;;0.60;;
44214;SDS011;29884;47.450;19.124;2023-04-01T03:37:57;1.50;;;0.40;;
44214;SDS011;29884;47.450;19.124;2023-04-01T03:40:23;0.82;;;0.40;;
44214;SDS011;29884;47.450;19.124;2023-04-01T03:42:51;0.95;;;0.50;;
44214;SDS011;29884;47.450;19.124;2023-04-01T03:45:17;0.82;;;0.40;;
44214;SDS011;29884;47.450;19.124;2023-04-01T03:47:43;2.08;;;0.50;;
44214;SDS011;29884;47.450;19.124;2023-04-01T03:50:09;1.35;;;0.40;;
44214;SDS011;29884;47.450;19.124;2023-04-01T03:52:35;1.67;;;0.40;;
44214;SDS011;29884;47.450;19.124;2023-04-01T03:55:01;2.60;;;0.60;;
44214;SDS011;29884;47.450;19.124;2023-04-01T03:57:27;1.15;;;0.45;;
44214;SDS011;29884;47.450;19.124;2023-04-01T03:59:53;1.67;;;0.50;;
44214;SDS011;29884;47.450;19.124;2023-04-01T04:02:19;1.17;;;0.50;;
44214;SDS011;29884;47.450;19.124;2023-04-01T04:04:44;1.15;;;0.50;;
44214;SDS011;29884;47.450;19.124;2023-04-01T04:07:12;1.33;;;0.50;;
44214;SDS011;29884;47.450;19.124;2023-04-01T04:09:38;1.50;;;0.52;;
44214;SDS011;29884;47.450;19.124;2023-04-01T04:12:04;1.38;;;0.50;;
44214;SDS011;29884;47.450;19.124;2023-04-01T04:14:31;1.42;;;0.50;;
44214;SDS011;29884;47.450;19.124;2023-04-01T04:16:57;1.52;;;0.63;;
44214;SDS011;29884;47.450;19.124;2023-04-01T04:19:22;1.85;;;0.65;;
44214;SDS011;29884;47.450;19.124;2023-04-01T04:21:49;1.38;;;0.70;;
44214;SDS011;29884;47.450;19.124;2023-04-01T04:24:15;1.23;;;0.63;;
44214;SDS011;29884;47.450;19.124;2023-04-01T04:26:41;1.48;;;0.70;;
44214;SDS011;29884;47.450;19.124;2023-04-01T04:29:07;1.15;;;0.70;;
44214;SDS011;29884;47.450;19.124;2023-04-01T04:31:32;1.90;;;0.60;;
44214;SDS011;29884;47.450;19.124;2023-04-01T04:33:59;2.53;;;0.60;;
44214;SDS011;29884;47.450;19.124;2023-04-01T04:36:26;1.60;;;0.70;;
44214;SDS011;29884;47.450;19.124;2023-04-01T04:38:51;1.80;;;0.70;;
44214;SDS011;29884;47.450;19.124;2023-04-01T04:41:17;2.03;;;0.80;;
44214;SDS011;29884;47.450;19.124;2023-04-01T04:43:51;3.33;;;0.73;;
44214;SDS011;29884;47.450;19.124;2023-04-01T04:46:19;2.72;;;0.70;;
44214;SDS011;29884;47.450;19.124;2023-04-01T04:48:45;1.92;;;0.70;;
44214;SDS011;29884;47.450;19.124;2023-04-01T04:51:14;1.95;;;0.65;;
44214;SDS011;29884;47.450;19.124;2023-04-01T04:53:41;2.50;;;0.60;;
44214;SDS011;29884;47.450;19.124;2023-04-01T04:56:06;1.58;;;0.57;;
44214;SDS011;29884;47.450;19.124;2023-04-01T04:58:32;2.08;;;0.52;;
44214;SDS011;29884;47.450;19.124;2023-04-01T05:00:58;2.30;;;0.70;;
44214;SDS011;29884;47.450;19.124;2023-04-01T05:03:29;2.58;;;0.60;;
44214;SDS011;29884;47.450;19.124;2023-04-01T05:05:55;1.88;;;0.60;;
44214;SDS011;29884;47.450;19.124;2023-04-01T05:08:21;0.93;;;0.52;;
44214;SDS011;29884;47.450;19.124;2023-04-01T05:10:47;1.15;;;0.57;;
44214;SDS011;29884;47.450;19.124;2023-04-01T05:13:12;1.75;;;0.85;;
44214;SDS011;29884;47.450;19.124;2023-04-01T05:15:38;1.25;;;0.70;;
44214;SDS011;29884;47.450;19.124;2023-04-01T05:18:04;0.85;;;0.50;;
44214;SDS011;29884;47.450;19.124;2023-04-01T05:20:30;1.20;;;0.60;;
44214;SDS011;29884;47.450;19.124;2023-04-01T05:22:56;5.82;;;0.70;;
44214;SDS011;29884;47.450;19.124;2023-04-01T05:25:22;1.63;;;0.70;;
44214;SDS011;29884;47.450;19.124;2023-04-01T05:27:48;1.88;;;0.55;;
44214;SDS011;29884;47.450;19.124;2023-04-01T05:30:13;2.00;;;0.60;;
44214;SDS011;29884;47.450;19.124;2023-04-01T05:32:39;3.88;;;0.70;;
44214;SDS011;29884;47.450;19.124;2023-04-01T05:35:05;1.65;;;0.70;;
44214;SDS011;29884;47.450;19.124;2023-04-01T05:37:33;1.05;;;0.50;;
44214;SDS011;29884;47.450;19.124;2023-04-01T05:40:00;3.67;;;0.60;;
44214;SDS011;29884;47.450;19.124;2023-04-01T05:42:25;1.85;;;0.68;;
44214;SDS011;29884;47.450;19.124;2023-04-01T05:44:51;3.45;;;0.80;;
44214;SDS011;29884;47.450;19.124;2023-04-01T05:47:17;2.42;;;0.75;;
44214;SDS011;29884;47.450;19.124;2023-04-01T05:49:43;2.55;;;0.50;;
44214;SDS011;29884;47.450;19.124;2023-04-01T05:52:09;3.25;;;0.70;;
44214;SDS011;29884;47.450;19.124;2023-04-01T05:54:35;4.03;;;0.60;;
44214;SDS011;29884;47.450;19.124;2023-04-01T05:57:00;2.20;;;0.60;;
44214;SDS011;29884;47.450;19.124;2023-04-01T05:59:26;2.53;;;0.60;;
44214;SDS011;29884;47.450;19.124;2023-04-01T06:01:52;1.70;;;0.70;;
44214;SDS011;29884;47.450;19.124;2023-04-01T06:04:18;1.88;;;0.60;;
44214;SDS011;29884;47.450;19.124;2023-04-01T06:06:44;1.45;;;0.60;;
44214;SDS011;29884;47.450;19.124;2023-04-01T06:09:18;3.90;;;0.50;;
44214;SDS011;29884;47.450;19.124;2023-04-01T06:17:24;1.20;;;0.52;;
44214;SDS011;29884;47.450;19.124;2023-04-01T06:25:17;2.28;;;0.90;;
44214;SDS011;29884;47.450;19.124;2023-04-01T06:37:00;5.28;;;1.45;;
44214;SDS011;29884;47.450;19.124;2023-04-01T06:39:54;3.47;;;1.20;;
44214;SDS011;29884;47.450;19.124;2023-04-01T06:42:44;3.40;;;0.80;;
44214;SDS011;29884;47.450;19.124;2023-04-01T06:56:04;2.45;;;0.50;;
44214;SDS011;29884;47.450;19.124;2023-04-01T06:58:35;2.45;;;0.88;;
44214;SDS011;29884;47.450;19.124;2023-04-01T07:01:04;1.63;;;0.30;;
44214;SDS011;29884;47.450;19.124;2023-04-01T07:03:34;0.80;;;0.25;;
44214;SDS011;29884;47.450;19.124;2023-04-01T07:06:05;1.10;;;0.30;;
44214;SDS011;29884;47.450;19.124;2023-04-01T07:08:37;0.93;;;0.20;;
44214;SDS011;29884;47.450;19.124;2023-04-01T07:11:09;0.73;;;0.20;;
44214;SDS011;29884;47.450;19.124;2023-04-01T07:13:39;0.75;;;0.43;;
44214;SDS011;29884;47.450;19.124;2023-04-01T07:16:17;1.08;;;0.20;;
44214;SDS011;29884;47.450;19.124;2023-04-01T07:18:54;1.30;;;0.30;;
44214;SDS011;29884;47.450;19.124;2023-04-01T07:21:42;1.35;;;0.30;;
44214;SDS011;29884;47.450;19.124;2023-04-01T07:24:21;1.33;;;0.40;;
44214;SDS011;29884;47.450;19.124;2023-04-01T07:26:55;1.02;;;0.30;;
44214;SDS011;29884;47.450;19.124;2023-04-01T07:29:22;1.08;;;0.30;;
44214;SDS011;29884;47.450;19.124;2023-04-01T07:40:22;2.20;;;0.47;;
44214;SDS011;29884;47.450;19.124;2023-04-01T07:43:59;2.92;;;0.30;;
44214;SDS011;29884;47.450;19.124;2023-04-01T07:51:44;1.88;;;0.70;;
44214;SDS011;29884;47.450;19.124;2023-04-01T07:56:55;1.48;;;0.32;;
44214;SDS011;29884;47.450;19.124;2023-04-01T08:04:40;1.33;;;0.40;;
44214;SDS011;29884;47.450;19.124;2023-04-01T08:07:32;3.10;;;0.20;;
44214;SDS011;29884;47.450;19.124;2023-04-01T08:12:45;2.38;;;0.30;;
44214;SDS011;29884;47.450;19.124;2023-04-01T08:18:27;3.03;;;0.45;;
44214;SDS011;29884;47.450;19.124;2023-04-01T08:21:14;0.70;;;0.20;;
44214;SDS011;29884;47.450;19.124;2023-04-01T08:23:55;3.72;;;0.40;;
44214;SDS011;29884;47.450;19.124;2023-04-01T08:26:44;2.40;;;0.30;;
44214;SDS011;29884;47.450;19.124;2023-04-01T08:29:21;1.80;;;0.30;;
44214;SDS011;29884;47.450;19.124;2023-04-01T08:34:20;0.73;;;0.30;;
44214;SDS011;29884;47.450;19.124;2023-04-01T08:37:02;18.50;;;1.08;;
44214;SDS011;29884;47.450;19.124;2023-04-01T08:39:39;2.50;;;0.50;;
44214;SDS011;29884;47.450;19.124;2023-04-01T08:49:33;5.90;;;0.40;;
44214;SDS011;29884;47.450;19.124;2023-04-01T08:51:42;13.82;;;0.70;;
44214;SDS011;29884;47.450;19.124;2023-04-01T08:57:11;3.63;;;0.75;;
44214;SDS011;29884;47.450;19.124;2023-04-01T09:02:58;2.72;;;0.20;;
44214;SDS011;29884;47.450;19.124;2023-04-01T09:16:57;2.50;;;0.30;;
44214;SDS011;29884;47.450;19.124;2023-04-01T09:45:21;2.65;;;0.88;;
44214;SDS011;29884;47.450;19.124;2023-04-01T09:58:42;1.45;;;0.57;;
44214;SDS011;29884;47.450;19.124;2023-04-01T10:04:30;0.68;;;0.25;;
44214;SDS011;29884;47.450;19.124;2023-04-01T10:21:47;1.60;;;0.40;;
44214;SDS011;29884;47.450;19.124;2023-04-01T10:32:42;2.30;;;0.77;;
44214;SDS011;29884;47.450;19.124;2023-04-01T10:35:46;5.13;;;0.55;;
44214;SDS011;29884;47.450;19.124;2023-04-01T11:03:21;3.92;;;0.47;;
44214;SDS011;29884;47.450;19.124;2023-04-01T11:12:23;2.00;;;0.30;;
44214;SDS011;29884;47.450;19.124;2023-04-01T11:42:34;1.83;;;0.30;;
44214;SDS011;29884;47.450;19.124;2023-04-01T11:54:06;2.63;;;0.32;;
44214;SDS011;29884;47.450;19.124;2023-04-01T12:06:09;1.15;;;0.30;;
44214;SDS011;29884;47.450;19.124;2023-04-01T12:22:20;1.55;;;0.55;;
44214;SDS011;29884;47.450;19.124;2023-04-01T12:30:35;1.33;;;0.30;;
44214;SDS011;29884;47.450;19.124;2023-04-01T12:49:19;2.50;;;0.80;;
44214;SDS011;29884;47.450;19.124;2023-04-01T12:52:13;2.05;;;0.90;;
44214;SDS011;29884;47.450;19.124;2023-04-01T13:07:18;1.85;;;0.38;;
44214;SDS011;29884;47.450;19.124;2023-04-01T13:19:58;1.20;;;0.40;;
44214;SDS011;29884;47.450;19.124;2023-04-01T13:28:01;1.70;;;0.30;;
44214;SDS011;29884;47.450;19.124;2023-04-01T13:30:46;1.08;;;0.30;;
44214;SDS011;29884;47.450;19.124;2023-04-01T13:33:38;1.77;;;0.30;;
44214;SDS011;29884;47.450;19.124;2023-04-01T13:39:20;0.82;;;0.30;;
44214;SDS011;29884;47.450;19.124;2023-04-01T13:42:12;0.73;;;0.28;;
44214;SDS011;29884;47.450;19.124;2023-04-01T13:45:38;0.70;;;0.22;;
44214;SDS011;29884;47.450;19.124;2023-04-01T13:50:57;0.77;;;0.30;;
44214;SDS011;29884;47.450;19.124;2023-04-01T14:12:38;2.05;;;0.20;;
44214;SDS011;29884;47.450;19.124;2023-04-01T14:29:06;0.52;;;0.20;;
44214;SDS011;29884;47.450;19.124;2023-04-01T14:31:48;0.50;;;0.20;;
44214;SDS011;29884;47.450;19.124;2023-04-01T14:34:28;1.08;;;0.20;;
44214;SDS011;29884;47.450;19.124;2023-04-01T14:48:39;1.67;;;0.40;;
44214;SDS011;29884;47.450;19.124;2023-04-01T14:51:15;2.30;;;0.90;;
44214;SDS011;29884;47.450;19.124;2023-04-01T14:53:43;2.10;;;0.90;;
44214;SDS011;29884;47.450;19.124;2023-04-01T14:56:34;1.70;;;0.50;;
44214;SDS011;29884;47.450;19.124;2023-04-01T14:59:01;2.42;;;0.50;;
44214;SDS011;29884;47.450;19.124;2023-04-01T15:01:46;2.15;;;0.60;;
44214;SDS011;29884;47.450;19.124;2023-04-01T15:12:58;0.77;;;0.20;;
44214;SDS011;29884;47.450;19.124;2023-04-01T15:21:11;0.98;;;0.30;;
44214;SDS011;29884;47.450;19.124;2023-04-01T15:32:16;1.05;;;0.40;;
44214;SDS011;29884;47.450;19.124;2023-04-01T15:34:59;1.48;;;0.40;;
44214;SDS011;29884;47.450;19.124;2023-04-01T15:41:06;0.63;;;0.20;;
44214;SDS011;29884;47.450;19.124;2023-04-01T15:46:09;1.15;;;0.30;;
44214;SDS011;29884;47.450;19.124;2023-04-01T15:48:55;4.82;;;0.30;;
44214;SDS011;29884;47.450;19.124;2023-04-01T16:10:52;0.93;;;0.30;;
44214;SDS011;29884;47.450;19.124;2023-04-01T16:13:48;0.22;;;0.10;;
44214;SDS011;29884;47.450;19.124;2023-04-01T16:21:50;1.08;;;0.40;;
44214;SDS011;29884;47.450;19.124;2023-04-01T16:27:18;0.70;;;0.30;;
44214;SDS011;29884;47.450;19.124;2023-04-01T16:32:31;0.38;;;0.10;;
44214;SDS011;29884;47.450;19.124;2023-04-01T16:35:22;0.40;;;0.20;;
44214;SDS011;29884;47.450;19.124;2023-04-01T16:38:32;1.25;;;0.10;;
44214;SDS011;29884;47.450;19.124;2023-04-01T16:43:52;0.20;;;0.10;;
44214;SDS011;29884;47.450;19.124;2023-04-01T16:52:16;0.60;;;0.10;;
44214;SDS011;29884;47.450;19.124;2023-04-01T16:55:02;0.30;;;0.10;;
44214;SDS011;29884;47.450;19.124;2023-04-01T17:02:58;0.90;;;0.30;;
44214;SDS011;29884;47.450;19.124;2023-04-01T17:33:00;1.13;;;0.40;;
44214;SDS011;29884;47.450;19.124;2023-04-01T18:00:01;1.25;;;0.60;;
44214;SDS011;29884;47.450;19.124;2023-04-01T18:02:51;4.13;;;2.20;;
44214;SDS011;29884;47.450;19.124;2023-04-01T18:13:43;1.58;;;0.60;;
44214;SDS011;29884;47.450;19.124;2023-04-01T18:27:48;5.38;;;1.92;;
44214;SDS011;29884;47.450;19.124;2023-04-01T18:30:30;2.75;;;1.23;;
44214;SDS011;29884;47.450;19.124;2023-04-01T18:38:12;2.60;;;1.20;;
44214;SDS011;29884;47.450;19.124;2023-04-01T18:40:45;2.10;;;0.90;;
44214;SDS011;29884;47.450;19.124;2023-04-01T18:46:17;3.60;;;0.80;;
44214;SDS011;29884;47.450;19.124;2023-04-01T18:51:36;5.03;;;1.00;;
44214;SDS011;29884;47.450;19.124;2023-04-01T18:54:40;1.85;;;1.02;;
44214;SDS011;29884;47.450;19.124;2023-04-01T18:57:10;2.40;;;0.70;;
44214;SDS011;29884;47.450;19.124;2023-04-01T18:59:45;2.72;;;0.60;;
44214;SDS011;29884;47.450;19.124;2023-04-01T19:07:44;2.85;;;1.10;;
44214;SDS011;29884;47.450;19.124;2023-04-01T19:15:53;1.92;;;1.00;;
44214;SDS011;29884;47.450;19.124;2023-04-01T19:30:06;3.03;;;0.90;;
44214;SDS011;29884;47.450;19.124;2023-04-01T19:32:22;2.30;;;0.70;;
44214;SDS011;29884;47.450;19.124;2023-04-01T19:45:46;3.50;;;1.20;;
44214;SDS011;29884;47.450;19.124;2023-04-01T20:00:07;5.15;;;1.83;;
44214;SDS011;29884;47.450;19.124;2023-04-01T20:02:50;3.83;;;1.63;;
44214;SDS011;29884;47.450;19.124;2023-04-01T20:05:30;5.35;;;1.80;;
44214;SDS011;29884;47.450;19.124;2023-04-01T20:14:01;11.02;;;5.38;;
44214;SDS011;29884;47.450;19.124;2023-04-01T20:17:38;4.57;;;1.70;;
44214;SDS011;29884;47.450;19.124;2023-04-01T20:19:55;2.40;;;1.02;;
44214;SDS011;29884;47.450;19.124;2023-04-01T20:22:34;2.30;;;0.95;;
44214;SDS011;29884;47.450;19.124;2023-04-01T20:27:54;4.70;;;0.95;;
44214;SDS011;29884;47.450;19.124;2023-04-01T20:30:34;3.17;;;1.05;;
44214;SDS011;29884;47.450;19.124;2023-04-01T20:47:47;2.78;;;0.90;;
44214;SDS011;29884;47.450;19.124;2023-04-01T20:50:27;2.55;;;0.88;;
44214;SDS011;29884;47.450;19.124;2023-04-01T20:53:10;3.88;;;1.05;;
44214;SDS011;29884;47.450;19.124;2023-04-01T21:29:08;2.40;;;1.20;;
44214;SDS011;29884;47.450;19.124;2023-04-01T21:43:20;2.15;;;1.25;;
44214;SDS011;29884;47.450;19.124;2023-04-01T21:45:52;3.10;;;1.30;;
44214;SDS011;29884;47.450;19.124;2023-04-01T21:51:25;2.60;;;1.20;;
44214;SDS011;29884;47.450;19.124;2023-04-01T22:10:48;1.83;;;0.90;;
44214;SDS011;29884;47.450;19.124;2023-04-01T22:13:28;2.90;;;1.00;;
44214;SDS011;29884;47.450;19.124;2023-04-01T22:16:23;2.35;;;0.95;;
44214;SDS011;29884;47.450;19.124;2023-04-01T22:19:36;1.63;;;0.88;;
44214;SDS011;29884;47.450;19.124;2023-04-01T22:35:27;1.60;;;0.50;;
44214;SDS011;29884;47.450;19.124;2023-04-01T22:38:07;1.33;;;0.60;;
44214;SDS011;29884;47.450;19.124;2023-04-01T22:41:12;1.60;;;0.50;;
44214;SDS011;29884;47.450;19.124;2023-04-01T22:43:40;3.47;;;0.45;;
44214;SDS011;29884;47.450;19.124;2023-04-01T22:51:31;1.15;;;0.60;;
44214;SDS011;29884;47.450;19.124;2023-04-01T23:04:54;0.50;;;0.10;;
44214;SDS011;29884;47.450;19.124;2023-04-01T23:10:30;0.35;;;0.10;;
44214;SDS011;29884;47.450;19.124;2023-04-01T23:13:25;0.15;;;0.10;;
44214;SDS011;29884;47.450;19.124;2023-04-01T23:15:54;0.55;;;0.20;;
44214;SDS011;29884;47.450;19.124;2023-04-01T23:18:22;0.35;;;0.10;;
44214;SDS011;29884;47.450;19.124;2023-04-01T23:26:36;0.20;;;0.10;;
44214;SDS011;29884;47.450;19.124;2023-04-01T23:29:13;0.20;;;0.13;;
44214;SDS011;29884;47.450;19.124;2023-04-01T23:31:44;0.30;;;0.20;;
44214;SDS011;29884;47.450;19.124;2023-04-01T23:36:37;0.30;;;0.10;;
44214;SDS011;29884;47.450;19.124;2023-04-01T23:39:17;0.73;;;0.10;;
44214;SDS011;29884;47.450;19.124;2023-04-01T23:41:52;0.30;;;0.10;;
44214;SDS011;29884;47.450;19.124;2023-04-01T23:44:21;0.40;;;0.20;;
44214;SDS011;29884;47.450;19.124;2023-04-01T23:46:50;0.15;;;0.10;;
44214;SDS011;29884;47.450;19.124;2023-04-01T23:49:36;0.52;;;0.30;;
44214;SDS011;29884;47.450;19.124;2023-04-01T23:52:10;2.17;;;0.30;;
44214;SDS011;29884;47.450;19.124;2023-04-01T23:54:49;0.60;;;0.20;;
44214;SDS011;29884;47.450;19.124;2023-04-01T23:57:30;1.40;;;0.40;;
